createdAt,value
2023-04-02T00:01:51.022Z,97891.46
2023-04-02T00:04:38.224Z,97893.39
2023-04-02T00:07:33.802Z,97896.04
2023-04-02T00:10:32.140Z,97902.65
2023-04-02T00:13:08.083Z,97905.06
2023-04-02T00:16:03.453Z,97907.48
2023-04-02T00:18:51.540Z,97907.46
2023-04-02T00:21:47.379Z,97909.79
2023-04-02T00:24:41.632Z,97916.86
2023-04-02T00:27:25.777Z,97918.82
2023-04-02T00:30:18.734Z,97922.49
2023-04-02T00:33:17.242Z,97929.16
2023-04-02T00:36:11.707Z,97932.14
2023-04-02T00:39:09.064Z,97931.11
2023-04-02T00:41:54.854Z,97933.61
2023-04-02T00:44:43.288Z,97935.59
2023-04-02T00:47:27.361Z,97938.77
2023-04-02T00:50:22.031Z,97939.52
2023-04-02T00:53:23.351Z,97943.47
2023-04-02T00:56:22.498Z,97945.49
2023-04-02T00:59:26.343Z,97939.23
2023-04-02T01:02:02.816Z,97947.66
2023-04-02T01:04:58.180Z,97949.86
2023-04-02T01:08:11.819Z,97958.27
2023-04-02T01:11:01.846Z,97960.40
2023-04-02T01:14:02.260Z,97963.05
2023-04-02T01:16:50.672Z,97965.35
2023-04-02T01:20:12.063Z,97969.53
2023-04-02T01:23:09.763Z,97974.30
2023-04-02T01:26:01.248Z,97974.11
2023-04-02T01:29:00.136Z,97976.55
2023-04-02T01:31:48.393Z,97979.34
2023-04-02T01:34:37.125Z,97980.21
2023-04-02T01:37:49.643Z,97986.02
2023-04-02T01:40:40.763Z,97984.98
2023-04-02T01:43:42.041Z,97992.86
2023-04-02T01:46:36.932Z,97992.69
2023-04-02T01:49:23.699Z,97997.13
2023-04-02T01:52:27.042Z,98003.58
2023-04-02T01:55:26.050Z,98006.36
2023-04-02T01:58:11.451Z,98010.80
2023-04-02T02:01:07.506Z,98015.55
2023-04-02T02:04:01.205Z,98020.36
2023-04-02T02:06:48.564Z,98027.64
2023-04-02T02:09:41.892Z,98030.63
2023-04-02T02:12:35.258Z,98031.52
2023-04-02T02:15:28.033Z,98033.46
2023-04-02T02:18:24.693Z,98036.11
2023-04-02T02:21:29.922Z,98039.63
2023-04-02T02:24:26.813Z,98042.11
2023-04-02T02:27:45.509Z,98045.82
2023-04-02T02:30:43.806Z,98050.42
2023-04-02T02:33:35.550Z,98052.04
2023-04-02T02:36:34.134Z,98052.42
2023-04-02T02:39:25.794Z,98053.66
2023-04-02T02:42:27.292Z,98057.49
2023-04-02T02:45:26.596Z,98064.62
2023-04-02T02:48:11.438Z,98065.30
2023-04-02T02:51:09.274Z,98073.86
2023-04-02T02:54:08.036Z,98073.05
2023-04-02T02:56:59.060Z,98082.50
2023-04-02T02:59:54.244Z,98079.54
2023-04-02T03:02:49.782Z,98083.70
2023-04-02T03:05:43.876Z,98083.50
2023-04-02T03:08:40.551Z,98081.71
2023-04-02T03:11:41.465Z,98084.36
2023-04-02T03:14:39.728Z,98083.33
2023-04-02T03:17:38.196Z,98080.74
2023-04-02T03:20:40.586Z,98088.09
2023-04-02T03:23:37.787Z,98089.15
2023-04-02T03:26:17.709Z,98092.82
2023-04-02T03:29:17.746Z,98094.93
2023-04-02T03:32:18.371Z,98099.69
2023-04-02T03:35:20.635Z,98104.39
2023-04-02T03:38:09.397Z,98109.83
2023-04-02T03:41:03.502Z,98112.65
2023-04-02T03:43:48.082Z,98115.65
2023-04-02T03:46:58.544Z,98122.97
2023-04-02T03:49:56.590Z,98122.83
2023-04-02T03:52:49.797Z,98124.23
2023-04-02T03:55:44.262Z,98126.15
2023-04-02T03:58:45.144Z,98126.15
2023-04-02T04:01:44.873Z,98131.58
2023-04-02T04:04:43.889Z,98135.60
2023-04-02T04:07:41.498Z,98140.48
2023-04-02T04:10:36.246Z,98143.65
2023-04-02T04:13:30.248Z,98145.20
2023-04-02T04:16:29.230Z,98151.85
2023-04-02T04:19:30.176Z,98147.01
2023-04-02T04:22:30.454Z,98152.59
2023-04-02T04:25:30.207Z,98155.40
2023-04-02T04:28:28.040Z,98163.60
2023-04-02T04:31:31.365Z,98163.93
2023-04-02T04:34:31.478Z,98164.23
2023-04-02T04:37:33.685Z,98165.23
2023-04-02T04:40:28.580Z,98164.14
2023-04-02T04:43:20.096Z,98164.09
2023-04-02T04:46:11.727Z,98168.58
2023-04-02T04:48:54.035Z,98172.92
2023-04-02T04:51:44.195Z,98173.95
2023-04-02T04:54:29.426Z,98176.52
2023-04-02T04:57:31.163Z,98183.60
2023-04-02T05:00:28.295Z,98186.90
2023-04-02T05:03:22.398Z,98187.04
2023-04-02T05:06:15.101Z,98188.05
2023-04-02T05:09:14.731Z,98190.85
2023-04-02T05:12:18.338Z,98192.76
2023-04-02T05:15:18.427Z,98193.21
2023-04-02T05:18:25.088Z,98197.86
2023-04-02T05:21:24.150Z,98195.38
2023-04-02T05:24:43.518Z,98200.39
2023-04-02T05:27:43.619Z,98205.23
2023-04-02T05:30:46.900Z,98206.02
2023-04-02T05:33:41.089Z,98211.02
2023-04-02T05:36:34.655Z,98213.06
2023-04-02T05:39:12.444Z,98212.98
2023-04-02T05:42:05.696Z,98219.02
2023-04-02T05:45:19.344Z,98215.92
2023-04-02T05:48:06.083Z,98220.73
2023-04-02T05:50:55.626Z,98224.15
2023-04-02T05:53:38.247Z,98229.84
2023-04-02T05:56:38.819Z,98230.13
2023-04-02T05:59:22.954Z,98235.55
2023-04-02T06:02:03.097Z,98238.75
2023-04-02T06:04:48.021Z,98242.44
2023-04-02T06:07:52.320Z,98244.52
2023-04-02T06:10:36.704Z,98251.83
2023-04-02T06:13:17.765Z,98257.43
2023-04-02T06:16:14.587Z,98263.73
2023-04-02T06:18:50.974Z,98267.08
2023-04-02T06:21:50.027Z,98266.61
2023-04-02T06:24:40.278Z,98272.75
2023-04-02T06:27:25.225Z,98282.20
2023-04-02T06:30:23.736Z,98281.39
2023-04-02T06:33:17.279Z,98284.73
2023-04-02T06:36:13.042Z,98289.66
2023-04-02T06:39:12.715Z,98292.98
2023-04-02T06:42:04.775Z,98294.46
2023-04-02T06:45:22.636Z,98295.21
2023-04-02T06:48:35.518Z,98295.77
2023-04-02T06:51:29.285Z,98303.65
2023-04-02T06:54:22.697Z,98305.70
2023-04-02T06:57:16.362Z,98307.66
2023-04-02T07:00:37.264Z,98311.34
2023-04-02T07:03:32.933Z,98314.10
2023-04-02T07:06:25.364Z,98312.88
2023-04-02T07:09:11.011Z,98314.96
2023-04-02T07:12:04.246Z,98319.58
2023-04-02T07:14:57.748Z,98320.42
2023-04-02T07:17:51.097Z,98322.23
2023-04-02T07:20:44.314Z,98327.63
2023-04-02T07:23:21.811Z,98329.90
2023-04-02T07:26:20.089Z,98331.80
2023-04-02T07:28:57.790Z,98339.60
2023-04-02T07:31:42.131Z,98342.77
2023-04-02T07:34:34.646Z,98346.84
2023-04-02T07:37:27.865Z,98348.19
2023-04-02T07:40:04.105Z,98354.31
2023-04-02T07:42:49.753Z,98357.92
2023-04-02T07:45:37.493Z,98364.05
2023-04-02T07:48:23.504Z,98366.61
2023-04-02T07:51:21.562Z,98368.95
2023-04-02T07:54:10.481Z,98369.45
2023-04-02T07:56:43.305Z,98370.95
2023-04-02T07:59:19.551Z,98369.65
2023-04-02T08:02:06.047Z,98370.06
2023-04-02T08:04:59.162Z,98374.73
2023-04-02T08:07:42.977Z,98376.45
2023-04-02T08:10:26.695Z,98382.36
2023-04-02T08:13:19.738Z,98386.16
2023-04-02T08:15:54.869Z,98386.46
2023-04-02T08:18:48.014Z,98387.80
2023-04-02T08:21:42.482Z,98389.30
2023-04-02T08:24:35.601Z,98393.13
2023-04-02T08:27:15.128Z,98399.86
2023-04-02T08:30:13.875Z,98404.70
2023-04-02T08:33:08.734Z,98405.41
2023-04-02T08:36:01.875Z,98409.13
2023-04-02T08:38:55.969Z,98413.60
2023-04-02T08:41:59.802Z,98417.59
2023-04-02T08:45:21.285Z,98417.22
2023-04-02T08:48:18.704Z,98423.02
2023-04-02T08:51:24.206Z,98429.27
2023-04-02T08:54:23.078Z,98428.95
2023-04-02T08:57:17.021Z,98436.13
2023-04-02T08:59:55.644Z,98435.08
2023-04-02T09:02:36.397Z,98435.16
2023-04-02T09:05:24.517Z,98438.16
2023-04-02T09:08:22.166Z,98436.44
2023-04-02T09:11:11.177Z,98439.48
2023-04-02T09:14:08.473Z,98440.58
2023-04-02T09:16:49.905Z,98443.80
2023-04-02T09:19:46.203Z,98446.48
2023-04-02T09:22:24.878Z,98444.45
2023-04-02T09:25:21.069Z,98446.64
2023-04-02T09:28:15.842Z,98449.05
2023-04-02T09:31:20.891Z,98448.55
2023-04-02T09:33:54.850Z,98448.78
2023-04-02T09:36:39.352Z,98453.48
2023-04-02T09:39:21.852Z,98454.19
2023-04-02T09:42:05.513Z,98457.63
2023-04-02T09:44:41.978Z,98463.36
2023-04-02T09:47:28.906Z,98465.32
2023-04-02T09:50:25.290Z,98469.49
2023-04-02T09:53:00.174Z,98469.33
2023-04-02T09:55:35.529Z,98472.25
2023-04-02T09:58:13.018Z,98469.88
2023-04-02T10:00:56.441Z,98471.27
2023-04-02T10:03:33.145Z,98470.78
2023-04-02T10:06:18.449Z,98469.66
2023-04-02T10:08:52.011Z,98472.02
2023-04-02T10:11:46.115Z,98475.73
2023-04-02T10:14:35.746Z,98481.13
2023-04-02T10:17:17.459Z,98481.29
2023-04-02T10:20:09.566Z,98483.29
2023-04-02T10:22:47.243Z,98490.45
2023-04-02T10:25:26.635Z,98490.93
2023-04-02T10:28:38.572Z,98494.29
2023-04-02T10:31:27.634Z,98498.83
2023-04-02T10:34:09.365Z,98500.94
2023-04-02T10:36:51.550Z,98504.73
2023-04-02T10:39:35.557Z,98507.41
2023-04-02T10:42:18.446Z,98511.81
2023-04-02T10:44:58.465Z,98511.17
2023-04-02T10:47:39.465Z,98517.25
2023-04-02T10:50:34.219Z,98522.31
2023-04-02T10:53:16.128Z,98530.44
2023-04-02T10:56:08.197Z,98531.44
2023-04-02T10:59:05.570Z,98536.41
2023-04-02T11:01:45.219Z,98540.39
2023-04-02T11:04:23.700Z,98540.20
2023-04-02T11:07:13.883Z,98540.65
2023-04-02T11:09:55.015Z,98536.52
2023-04-02T11:12:42.011Z,98537.45
2023-04-02T11:15:21.169Z,98538.10
2023-04-02T11:18:06.184Z,98539.92
2023-04-02T11:21:02.309Z,98541.09
2023-04-02T11:23:40.934Z,98544.50
2023-04-02T11:26:43.129Z,98546.22
2023-04-02T11:29:23.851Z,98554.95
2023-04-02T11:32:36.791Z,98555.83
2023-04-02T11:35:28.369Z,98560.86
2023-04-02T11:38:25.642Z,98559.64
2023-04-02T11:41:04.014Z,98565.55
2023-04-02T11:44:01.137Z,98566.58
2023-04-02T11:46:50.924Z,98570.50
2023-04-02T11:50:02.724Z,98576.35
2023-04-02T11:52:55.962Z,98574.92
2023-04-02T11:55:34.290Z,98574.20
2023-04-02T11:58:38.462Z,98578.42
2023-04-02T12:01:58.891Z,98580.27
2023-04-02T12:04:58.002Z,98580.80
2023-04-02T12:07:58.131Z,98579.23
2023-04-02T12:10:57.776Z,98583.60
2023-04-02T12:13:58.597Z,98586.29
2023-04-02T12:16:38.953Z,98588.40
2023-04-02T12:19:19.812Z,98586.66
2023-04-02T12:21:56.685Z,98592.43
2023-04-02T12:24:33.434Z,98597.52
2023-04-02T12:27:23.597Z,98600.40
2023-04-02T12:30:20.848Z,98603.23
2023-04-02T12:33:31.033Z,98603.21
2023-04-02T12:36:24.748Z,98602.94
2023-04-02T12:39:19.849Z,98600.09
2023-04-02T12:42:30.803Z,98601.20
2023-04-02T12:45:29.686Z,98606.17
2023-04-02T12:48:22.616Z,98607.34
2023-04-02T12:51:17.194Z,98609.89
2023-04-02T12:53:54.984Z,98616.75
2023-04-02T12:56:47.204Z,98622.02
2023-04-02T12:59:40.098Z,98622.90
2023-04-02T13:02:26.583Z,98624.45
2023-04-02T13:05:36.660Z,98630.08
2023-04-02T13:08:33.268Z,98633.61
2023-04-02T13:11:19.441Z,98634.17
2023-04-02T13:14:21.348Z,98633.96
2023-04-02T13:17:27.150Z,98635.03
2023-04-02T13:20:37.517Z,98632.95
2023-04-02T13:23:38.956Z,98632.70
2023-04-02T13:26:34.553Z,98638.60
2023-04-02T13:29:30.393Z,98647.86
2023-04-02T13:32:23.975Z,98649.09
2023-04-02T13:35:08.136Z,98650.27
2023-04-02T13:38:04.267Z,98651.32
2023-04-02T13:40:49.812Z,98657.38
2023-04-02T13:43:36.081Z,98656.05
2023-04-02T13:46:31.506Z,98658.73
2023-04-02T13:49:07.441Z,98665.58
2023-04-02T13:51:53.068Z,98665.83
2023-04-02T13:54:48.921Z,98664.97
2023-04-02T13:57:43.395Z,98666.41
2023-04-02T14:00:37.822Z,98668.05
2023-04-02T14:03:34.602Z,98668.80
2023-04-02T14:06:37.438Z,98669.12
2023-04-02T14:09:41.445Z,98671.69
2023-04-02T14:12:48.981Z,98672.21
2023-04-02T14:15:57.259Z,98672.57
2023-04-02T14:18:48.817Z,98674.19
2023-04-02T14:21:55.608Z,98678.13
2023-04-02T14:24:58.115Z,98679.79
2023-04-02T14:27:49.314Z,98684.02
2023-04-02T14:30:43.466Z,98687.73
2023-04-02T14:33:46.317Z,98692.64
2023-04-02T14:36:49.937Z,98695.30
2023-04-02T14:39:45.924Z,98694.80
2023-04-02T14:42:46.053Z,98701.14
2023-04-02T14:45:41.595Z,98705.88
2023-04-02T14:48:42.964Z,98705.58
2023-04-02T14:51:33.558Z,98711.71
2023-04-02T14:54:16.753Z,98713.82
2023-04-02T14:57:21.671Z,98716.13
2023-04-02T15:00:30.835Z,98714.07
2023-04-02T15:03:27.770Z,98719.52
2023-04-02T15:06:25.924Z,98719.52
2023-04-02T15:09:33.553Z,98714.14
2023-04-02T15:12:24.083Z,98719.73
2023-04-02T15:15:24.328Z,98725.14
2023-04-02T15:18:17.102Z,98735.80
2023-04-02T15:21:29.695Z,98743.14
2023-04-02T15:24:28.874Z,98752.91
2023-04-02T15:27:23.911Z,98755.54
2023-04-02T15:30:22.192Z,98763.40
2023-04-02T15:33:47.038Z,98770.55
2023-04-02T15:36:57.872Z,98767.26
2023-04-02T15:40:20.785Z,98773.70
2023-04-02T15:43:22.382Z,98777.89
2023-04-02T15:46:23.010Z,98782.77
2023-04-02T15:49:35.340Z,98786.27
2023-04-02T15:52:24.529Z,98787.33
2023-04-02T15:55:28.012Z,98793.41
2023-04-02T15:58:35.625Z,98801.08
2023-04-02T16:01:55.477Z,98803.35
2023-04-02T16:04:56.289Z,98807.87
2023-04-02T16:08:37.525Z,98818.14
2023-04-02T16:11:17.151Z,98821.09
2023-04-02T16:14:23.442Z,98829.10
2023-04-02T16:17:24.949Z,98830.98
2023-04-02T16:20:24.118Z,98833.56
2023-04-02T16:23:13.944Z,98838.06
2023-04-02T16:26:04.781Z,98843.59
2023-04-02T16:29:12.915Z,98844.42
2023-04-02T16:32:36.131Z,98848.05
2023-04-02T16:35:43.590Z,98851.13
2023-04-02T16:38:42.080Z,98856.31
2023-04-02T16:41:37.443Z,98857.84
2023-04-02T16:44:39.470Z,98859.88
2023-04-02T16:47:41.889Z,98861.08
2023-04-02T16:50:46.100Z,98874.08
2023-04-02T16:54:00.959Z,98876.64
2023-04-02T16:57:10.731Z,98887.20
2023-04-02T17:00:02.521Z,98890.47
2023-04-02T17:03:22.278Z,98894.97
2023-04-02T17:06:06.171Z,98894.80
2023-04-02T17:08:55.416Z,98900.16
2023-04-02T17:11:53.404Z,98903.09
2023-04-02T17:14:52.484Z,98908.65
2023-04-02T17:17:28.598Z,98915.60
2023-04-02T17:20:27.214Z,98917.31
2023-04-02T17:23:11.205Z,98923.73
2023-04-02T17:26:10.535Z,98928.25
2023-04-02T17:28:46.105Z,98931.73
2023-04-02T17:31:23.396Z,98933.76
2023-04-02T17:34:01.068Z,98943.33
2023-04-02T17:36:49.207Z,98945.53
2023-04-02T17:39:32.621Z,98948.44
2023-04-02T17:42:22.382Z,98955.14
2023-04-02T17:45:14.993Z,98954.93
2023-04-02T17:47:57.792Z,98957.48
2023-04-02T17:51:02.618Z,98969.42
2023-04-02T17:53:51.383Z,98969.15
2023-04-02T17:56:53.033Z,98970.32
2023-04-02T18:00:02.588Z,98976.21
2023-04-02T18:03:00.383Z,98975.70
2023-04-02T18:05:43.943Z,98979.66
2023-04-02T18:08:26.065Z,98988.63
2023-04-02T18:11:29.743Z,98988.11
2023-04-02T18:14:17.587Z,98992.27
2023-04-02T18:16:58.672Z,98994.85
2023-04-02T18:19:56.046Z,98996.40
2023-04-02T18:22:38.499Z,98998.66
2023-04-02T18:25:54.514Z,98994.63
2023-04-02T18:28:59.417Z,99005.67
2023-04-02T18:31:41.237Z,99004.09
2023-04-02T18:34:56.744Z,99004.29
2023-04-02T18:38:03.669Z,99005.98
2023-04-02T18:41:02.938Z,99013.77
2023-04-02T18:44:01.203Z,99013.04
2023-04-02T18:46:56.559Z,99022.31
2023-04-02T18:49:58.443Z,99022.95
2023-04-02T18:52:43.138Z,99019.99
2023-04-02T18:55:37.262Z,99022.59
2023-04-02T18:58:22.313Z,99023.27
2023-04-02T19:01:19.948Z,99024.48
2023-04-02T19:04:19.093Z,99028.24
2023-04-02T19:07:16.665Z,99025.38
2023-04-02T19:10:06.030Z,99026.06
2023-04-02T19:12:59.361Z,99025.51
2023-04-02T19:16:18.726Z,99027.48
2023-04-02T19:19:19.892Z,99026.75
2023-04-02T19:22:19.311Z,99033.13
2023-04-02T19:25:36.112Z,99033.38
2023-04-02T19:28:35.507Z,99034.92
2023-04-02T19:31:44.887Z,99036.66
2023-04-02T19:34:44.569Z,99043.11
2023-04-02T19:37:42.616Z,99042.39
2023-04-02T19:40:37.566Z,99044.61
2023-04-02T19:43:32.961Z,99048.77
2023-04-02T19:46:27.490Z,99048.84
2023-04-02T19:49:10.033Z,99052.93
2023-04-02T19:51:46.171Z,99049.64
2023-04-02T19:54:21.964Z,99050.14
2023-04-02T19:56:58.576Z,99054.47
2023-04-02T19:59:31.581Z,99057.41
2023-04-02T20:02:24.675Z,99061.04
2023-04-02T20:05:18.049Z,99055.98
2023-04-02T20:08:10.933Z,99061.19
2023-04-02T20:11:05.980Z,99058.35
2023-04-02T20:13:53.910Z,99059.54
2023-04-02T20:16:46.777Z,99062.66
2023-04-02T20:19:38.680Z,99066.27
2023-04-02T20:22:31.785Z,99069.16
2023-04-02T20:25:24.561Z,99069.50
2023-04-02T20:28:17.714Z,99068.83
2023-04-02T20:31:09.341Z,99070.35
2023-04-02T20:33:55.786Z,99071.73
2023-04-02T20:36:34.616Z,99069.27
2023-04-02T20:39:09.282Z,99073.38
2023-04-02T20:42:17.515Z,99073.34
2023-04-02T20:45:08.632Z,99080.14
2023-04-02T20:47:52.552Z,99081.63
2023-04-02T20:50:38.783Z,99084.64
2023-04-02T20:56:36.928Z,99082.96
2023-04-02T20:59:31.545Z,99083.63
2023-04-02T21:02:24.677Z,99084.79
2023-04-02T21:05:19.200Z,99089.06
2023-04-02T21:08:12.700Z,99091.59
2023-04-02T21:11:08.831Z,99098.06
2023-04-02T21:14:02.081Z,99098.29
2023-04-02T21:16:55.662Z,99097.62
2023-04-02T21:19:48.873Z,99094.22
2023-04-02T21:22:40.890Z,99092.02
2023-04-02T21:25:34.566Z,99092.48
2023-04-02T21:28:28.252Z,99094.20
2023-04-02T21:31:23.054Z,99095.20
2023-04-02T21:34:18.716Z,99092.95
2023-04-02T21:37:10.251Z,99097.46
2023-04-02T21:40:03.303Z,99095.37
2023-04-02T21:42:57.650Z,99094.48
2023-04-02T21:45:50.658Z,99099.75
2023-04-02T21:48:36.600Z,99100.77
2023-04-02T21:51:31.451Z,99097.98
2023-04-02T21:54:24.144Z,99100.61
2023-04-02T21:57:18.978Z,99103.20
2023-04-02T22:00:13.884Z,99102.48
2023-04-02T22:03:06.605Z,99103.81
2023-04-02T22:06:01.032Z,99104.98
2023-04-02T22:08:57.573Z,99105.34
2023-04-02T22:11:54.122Z,99108.92
2023-04-02T22:14:46.717Z,99106.89
2023-04-02T22:17:41.528Z,99113.46
2023-04-02T22:20:34.601Z,99112.40
2023-04-02T22:23:07.500Z,99114.75
2023-04-02T22:26:01.522Z,99116.58
2023-04-02T22:28:34.703Z,99117.02
2023-04-02T22:31:22.793Z,99116.43
2023-04-02T22:34:06.899Z,99120.23
2023-04-02T22:36:59.494Z,99126.02
2023-04-02T22:39:52.017Z,99126.98
2023-04-02T22:42:35.947Z,99130.40
2023-04-02T22:45:21.404Z,99132.45
2023-04-02T22:47:54.135Z,99137.48
2023-04-02T22:50:52.936Z,99132.80
2023-04-02T22:53:47.308Z,99135.72
2023-04-02T22:56:40.005Z,99136.71
2023-04-02T22:59:25.781Z,99140.02
2023-04-02T23:02:08.475Z,99138.29
2023-04-02T23:05:01.902Z,99141.19
2023-04-02T23:07:54.770Z,99136.66
2023-04-02T23:10:37.504Z,99138.04
2023-04-02T23:13:30.595Z,99138.71
2023-04-02T23:16:27.048Z,99142.50
2023-04-02T23:19:19.816Z,99137.27
2023-04-02T23:22:12.690Z,99142.69
2023-04-02T23:25:05.735Z,99145.41
2023-04-02T23:27:52.385Z,99148.84
2023-04-02T23:30:46.070Z,99150.69
2023-04-02T23:33:38.860Z,99151.38
2023-04-02T23:36:17.711Z,99152.91
2023-04-02T23:39:12.729Z,99157.34
2023-04-02T23:42:05.693Z,99155.05
2023-04-02T23:44:43.184Z,99156.38
2023-04-02T23:47:36.290Z,99155.83
2023-04-02T23:50:30.655Z,99156.38
2023-04-02T23:53:14.717Z,99158.30
2023-04-02T23:55:50.313Z,99156.22
2023-04-02T23:58:43.361Z,99151.08
